SAZM/MDD METAR and TAF weather

Enter ICAO airport designator
Station Type Date Time Source
SAZM METAR 2019/08/18 08:00 UTC NOAA

SAZM 180800Z 23006KT 9999 SCT025 SCT040 06/04 Q1019 RERA


Station Type Date Time Source
SAZM Decoded METAR 2019/08/18 08:00 UTC NOAA

Station name not available
Aug 18, 2019 - 04:00 AM EDT / 2019.08.18 0800 UTC
Wind: from the SW (230 degrees) at 7 MPH (6 KT):0
Visibility: greater than 7 mile(s):0
Sky conditions: partly cloudy
Temperature: 42 F (6 C)
Dew Point: 39 F (4 C)
Relative Humidity: 86%
Pressure (altimeter): 30.09 in. Hg (1019 hPa)
ob: SAZM 180800Z 23006KT 9999 SCT025 SCT040 06/04 Q1019 RERA
cycle: 8

Station Type Date Time Source
SAZM TAF 2019/08/18 06:33 UTC NOAA

TAF SAZM 180500Z 1806/1906 22010KT 9999 BKN025 TX08/1818Z TN05/1810Z
TEMPO 1807/1811 8000 -RADZ BR BKN015 OVC025
BECMG 1811/1813 18020KT SCT020 BKN040
BECMG 1820/1823 18010KT

Example: see airport list